Time;durP1;ratioP1;P1;durP2;ratioP2;P2;SDS_P1;SDS_P2;PMS_P1;PMS_P2;Temp;Humidity;BMP_temperature;BMP_pressure;BME280_temperature;BME280_humidity;BME280_pressure;Samples;Min_cycle;Max_cycle;Signal;HPM_P1;HPM_P2
2021/12/31 00:00:47;;;;;;;0.47;0.30;;;18.30;90.80;;;;;;5003258;28;45296;-77
2021/12/31 00:03:16;;;;;;;0.68;0.50;;;18.30;90.80;;;;;;5024012;28;45363;-77
2021/12/31 00:05:44;;;;;;;1.92;0.50;;;18.40;90.80;;;;;;5022570;28;47280;-77
2021/12/31 00:08:15;;;;;;;0.60;0.50;;;18.30;90.70;;;;;;5021858;28;45404;-77
2021/12/31 00:10:45;;;;;;;1.70;0.40;;;18.30;90.70;;;;;;5024160;28;45181;-77
2021/12/31 00:13:15;;;;;;;0.93;0.65;;;18.30;90.70;;;;;;5018648;28;45565;-77
2021/12/31 00:15:45;;;;;;;0.82;0.52;;;18.30;90.70;;;;;;5021372;28;47156;-77
2021/12/31 00:18:12;;;;;;;1.02;0.50;;;18.30;90.60;;;;;;5018719;28;46407;-77
2021/12/31 00:20:41;;;;;;;1.55;0.85;;;18.30;91.00;;;;;;5020781;28;45217;-77
2021/12/31 00:23:10;;;;;;;1.23;0.50;;;18.30;90.70;;;;;;5021264;28;45427;-77
2021/12/31 00:25:43;;;;;;;1.65;0.50;;;18.30;90.60;;;;;;5022372;28;47663;-77
2021/12/31 00:28:12;;;;;;;0.65;0.40;;;18.20;90.60;;;;;;5023993;28;45843;-77
2021/12/31 00:30:41;;;;;;;0.50;0.40;;;18.30;90.70;;;;;;5020641;28;45238;-77
2021/12/31 00:33:09;;;;;;;0.75;0.40;;;18.20;90.60;;;;;;5025394;28;45334;-77
2021/12/31 00:35:40;;;;;;;1.33;0.47;;;18.20;90.60;;;;;;5021375;28;48239;-77
2021/12/31 00:38:08;;;;;;;0.82;0.50;;;18.20;90.60;;;;;;5023753;28;45203;-77
2021/12/31 00:40:36;;;;;;;1.10;0.52;;;18.20;90.70;;;;;;5021622;28;45302;-77
2021/12/31 00:43:06;;;;;;;1.58;0.45;;;18.20;90.70;;;;;;5023698;28;45292;-76
2021/12/31 00:45:37;;;;;;;1.13;0.47;;;18.20;90.70;;;;;;5022575;28;47598;-77
2021/12/31 00:48:04;;;;;;;1.27;0.45;;;18.20;90.70;;;;;;5022486;28;46160;-76
2021/12/31 00:50:32;;;;;;;0.65;0.40;;;18.20;90.70;;;;;;5021590;28;45352;-77
2021/12/31 00:52:59;;;;;;;1.80;0.50;;;18.20;90.60;;;;;;5020831;28;45158;-77
2021/12/31 00:55:36;;;;;;;1.73;0.57;;;18.20;90.60;;;;;;5005068;28;46095;-77
2021/12/31 00:58:06;;;;;;;0.40;0.40;;;18.30;90.60;;;;;;5022940;28;45317;-78
2021/12/31 05:18:04;;;;;;;0.70;0.40;;;18.20;87.90;;;;;;5064977;22;45996;-79
2021/12/31 05:20:31;;;;;;;0.50;0.40;;;18.20;88.90;;;;;;5050325;28;45371;-78
2021/12/31 05:23:00;;;;;;;0.70;0.40;;;18.20;87.90;;;;;;5055597;28;46530;-78
2021/12/31 05:25:28;;;;;;;0.20;0.20;;;18.30;88.00;;;;;;5064327;28;46016;-79
2021/12/31 05:27:55;;;;;;;0.82;0.43;;;18.20;87.80;;;;;;5050055;28;45259;-78
2021/12/31 05:30:22;;;;;;;0.82;0.60;;;18.30;87.90;;;;;;5050496;28;45223;-79
2021/12/31 05:32:50;;;;;;;0.80;0.30;;;18.20;87.70;;;;;;5050303;28;47713;-79
2021/12/31 05:35:19;;;;;;;1.48;0.28;;;18.20;87.70;;;;;;5049648;28;45320;-79
2021/12/31 05:37:46;;;;;;;0.30;0.30;;;18.20;87.80;;;;;;5050198;28;45292;-79
2021/12/31 05:40:13;;;;;;;0.50;0.32;;;18.20;87.90;;;;;;5055146;28;45222;-79
2021/12/31 05:42:40;;;;;;;0.40;0.30;;;18.30;87.80;;;;;;5066046;28;46603;-79
2021/12/31 05:45:09;;;;;;;1.23;0.50;;;18.20;87.70;;;;;;5052799;28;45301;-79
2021/12/31 05:47:38;;;;;;;0.85;0.50;;;18.20;87.70;;;;;;5051234;28;45669;-79
2021/12/31 05:50:09;;;;;;;1.13;0.47;;;18.20;87.70;;;;;;5056159;28;45182;-79
2021/12/31 05:52:38;;;;;;;0.38;0.38;;;18.20;87.60;;;;;;5074721;28;47295;-79
2021/12/31 05:55:07;;;;;;;1.35;0.50;;;18.20;87.70;;;;;;5047546;28;45235;-79
2021/12/31 05:57:37;;;;;;;1.48;0.40;;;18.20;87.60;;;;;;5060862;28;45439;-79
2021/12/31 06:00:06;;;;;;;0.80;0.50;;;18.20;87.60;;;;;;5057576;28;45641;-78
2021/12/31 06:02:33;;;;;;;1.20;0.50;;;18.20;87.50;;;;;;5047753;28;48810;-78
2021/12/31 06:05:01;;;;;;;1.98;0.60;;;18.20;87.50;;;;;;5059695;28;45729;-79
2021/12/31 06:07:28;;;;;;;0.63;0.40;;;18.20;87.40;;;;;;5069191;28;45319;-79
2021/12/31 06:09:58;;;;;;;1.10;0.40;;;18.20;87.30;;;;;;5058183;28;45257;-79
2021/12/31 06:12:25;;;;;;;1.45;0.45;;;18.30;87.40;;;;;;5068911;28;48693;-79
2021/12/31 06:14:54;;;;;;;1.15;0.50;;;18.30;87.40;;;;;;5065283;28;45270;-79
2021/12/31 06:17:25;;;;;;;0.50;0.38;;;18.30;87.40;;;;;;5068490;28;45304;-79
2021/12/31 06:19:53;;;;;;;0.73;0.28;;;18.20;87.20;;;;;;5066487;28;45528;-79
2021/12/31 06:22:21;;;;;;;0.22;0.22;;;18.30;87.30;;;;;;5054730;28;46629;-79
2021/12/31 06:24:48;;;;;;;1.50;0.65;;;18.30;87.30;;;;;;5064427;28;46569;-79
2021/12/31 06:27:18;;;;;;;0.35;0.30;;;18.30;87.30;;;;;;5066809;28;45197;-79
2021/12/31 06:29:51;;;;;;;0.32;0.32;;;18.30;87.20;;;;;;5058823;28;45125;-79
2021/12/31 06:32:18;;;;;;;0.40;0.40;;;18.20;87.10;;;;;;5048833;28;48060;-79
2021/12/31 06:34:46;;;;;;;0.85;0.50;;;18.30;87.10;;;;;;5047987;28;45272;-79
2021/12/31 06:37:13;;;;;;;1.08;0.50;;;18.20;87.10;;;;;;5072769;28;45220;-79
2021/12/31 06:39:41;;;;;;;0.32;0.30;;;18.30;87.10;;;;;;5070791;28;45146;-79
2021/12/31 06:42:10;;;;;;;0.35;0.30;;;18.30;87.10;;;;;;5078107;28;47698;-79
2021/12/31 06:44:41;;;;;;;0.50;0.38;;;18.30;86.90;;;;;;5053176;28;45286;-79
2021/12/31 06:47:08;;;;;;;0.40;0.40;;;18.30;87.00;;;;;;5052642;28;45409;-79
2021/12/31 06:49:36;;;;;;;0.40;0.30;;;18.20;86.80;;;;;;5055797;28;45335;-79
2021/12/31 06:52:04;;;;;;;0.40;0.30;;;18.30;86.80;;;;;;5054880;28;47230;-79
2021/12/31 06:54:32;;;;;;;0.57;0.45;;;18.20;86.50;;;;;;5061237;28;45459;-79
2021/12/31 06:57:00;;;;;;;0.45;0.40;;;18.20;86.60;;;;;;5049649;28;45334;-79
2021/12/31 06:59:32;;;;;;;0.57;0.32;;;18.20;86.40;;;;;;5056925;28;45341;-79
2021/12/31 07:02:01;;;;;;;0.32;0.22;;;18.30;86.50;;;;;;5055039;28;46009;-79
2021/12/31 07:04:29;;;;;;;0.75;0.40;;;18.30;86.40;;;;;;5048552;28;45230;-79
2021/12/31 07:06:57;;;;;;;0.77;0.38;;;18.30;86.30;;;;;;5048069;28;45311;-79
2021/12/31 07:09:25;;;;;;;0.52;0.30;;;18.30;86.30;;;;;;5066577;28;45289;-79
2021/12/31 07:11:52;;;;;;;0.80;0.40;;;18.30;86.20;;;;;;5071064;28;48442;-79
2021/12/31 07:14:20;;;;;;;0.47;0.30;;;18.50;86.30;;;;;;5068703;28;45375;-79
2021/12/31 07:16:52;;;;;;;1.60;0.57;;;18.30;86.10;;;;;;5055571;28;45359;-79
2021/12/31 07:19:24;;;;;;;0.40;0.22;;;18.30;85.90;;;;;;5048130;28;45175;-79
2021/12/31 07:21:51;;;;;;;0.32;0.30;;;18.30;86.00;;;;;;5053734;28;48276;-79
2021/12/31 07:24:18;;;;;;;0.68;0.40;;;18.30;85.90;;;;;;5054077;28;45390;-77
2021/12/31 07:26:47;;;;;;;1.38;0.40;;;18.30;85.90;;;;;;5047914;28;45305;-79
2021/12/31 07:29:14;;;;;;;0.50;0.35;;;18.30;85.80;;;;;;5047916;28;45761;-79
2021/12/31 07:31:41;;;;;;;0.65;0.40;;;18.30;85.80;;;;;;5059165;28;45513;-79
2021/12/31 07:34:10;;;;;;;1.23;0.55;;;18.20;85.60;;;;;;5060134;28;45426;-79
2021/12/31 07:36:39;;;;;;;1.88;0.43;;;18.30;85.70;;;;;;5056090;28;45214;-79
2021/12/31 07:39:09;;;;;;;1.02;0.50;;;18.20;85.60;;;;;;5047195;28;45506;-79
2021/12/31 07:41:38;;;;;;;0.68;0.45;;;18.20;85.60;;;;;;5058357;28;48334;-79
2021/12/31 07:44:07;;;;;;;0.73;0.40;;;18.30;86.60;;;;;;5085075;28;45232;-79
2021/12/31 07:46:35;;;;;;;0.50;0.40;;;18.20;85.50;;;;;;5071161;28;45324;-79
2021/12/31 07:49:04;;;;;;;1.00;0.40;;;18.30;85.60;;;;;;5068870;28;45723;-79
2021/12/31 07:51:31;;;;;;;1.00;0.30;;;18.20;85.40;;;;;;5058706;28;47005;-79
2021/12/31 07:54:02;;;;;;;2.33;0.50;;;18.30;85.40;;;;;;5051319;28;45477;-79
2021/12/31 07:56:30;;;;;;;0.30;0.25;;;18.30;85.30;;;;;;5053343;28;45347;-79
2021/12/31 07:58:58;;;;;;;0.38;0.38;;;18.30;85.20;;;;;;5051421;28;45131;-79
2021/12/31 08:01:25;;;;;;;3.08;0.70;;;18.30;85.20;;;;;;5056333;28;47323;-79
2021/12/31 08:03:53;;;;;;;0.43;0.40;;;18.30;85.00;;;;;;5057041;28;45344;-79
2021/12/31 08:06:20;;;;;;;0.35;0.30;;;18.30;85.10;;;;;;5065005;28;46763;-79
2021/12/31 08:08:48;;;;;;;0.77;0.45;;;18.30;85.00;;;;;;5056814;28;45209;-79
2021/12/31 08:11:21;;;;;;;0.40;0.40;;;18.30;85.00;;;;;;5056157;28;46401;-79
2021/12/31 08:13:48;;;;;;;0.32;0.30;;;18.30;84.90;;;;;;5077812;27;45244;-79
2021/12/31 08:16:16;;;;;;;1.17;0.43;;;18.30;85.00;;;;;;5067414;28;45243;-79
2021/12/31 08:18:43;;;;;;;0.70;0.50;;;18.20;84.70;;;;;;5050492;28;45331;-79
2021/12/31 08:21:11;;;;;;;0.20;0.20;;;18.30;84.90;;;;;;5066640;28;45970;-79
2021/12/31 08:23:39;;;;;;;0.50;0.25;;;18.20;84.70;;;;;;5061633;28;45821;-79
2021/12/31 08:26:06;;;;;;;0.55;0.30;;;18.30;84.90;;;;;;5059267;28;45193;-79
2021/12/31 08:28:40;;;;;;;0.82;0.40;;;18.20;84.60;;;;;;5063074;28;45338;-79
2021/12/31 08:31:10;;;;;;;0.30;0.30;;;18.30;84.80;;;;;;5062274;28;46058;-79
2021/12/31 08:33:37;;;;;;;0.47;0.30;;;18.20;84.70;;;;;;5050481;28;45188;-79
2021/12/31 08:36:15;;;;;;;0.40;0.30;;;18.20;84.70;;;;;;5058491;28;45326;-79
2021/12/31 08:38:49;;;;;;;0.57;0.43;;;18.20;84.80;;;;;;5066082;28;45406;-79
2021/12/31 08:41:17;;;;;;;0.63;0.30;;;18.20;84.80;;;;;;5061864;28;46893;-79
2021/12/31 08:43:51;;;;;;;0.52;0.35;;;18.20;84.90;;;;;;5057658;28;45154;-78
2021/12/31 08:46:19;;;;;;;1.00;0.38;;;18.20;84.70;;;;;;5058001;28;45166;-80
2021/12/31 08:48:48;;;;;;;0.57;0.40;;;18.20;84.80;;;;;;5084519;28;45244;-80
2021/12/31 08:51:16;;;;;;;0.60;0.40;;;18.20;84.80;;;;;;5074816;28;47369;-79
2021/12/31 08:53:43;;;;;;;0.45;0.30;;;18.20;84.90;;;;;;5076525;28;45373;-79
2021/12/31 08:56:11;;;;;;;0.70;0.35;;;18.20;85.00;;;;;;5065294;28;45267;-79
2021/12/31 08:58:40;;;;;;;0.65;0.50;;;18.20;85.00;;;;;;5067656;28;45831;-79
2021/12/31 09:01:08;;;;;;;0.52;0.40;;;18.20;84.90;;;;;;5060263;28;48276;-80
2021/12/31 09:03:38;;;;;;;0.70;0.40;;;18.20;84.90;;;;;;5068119;28;45372;-79
2021/12/31 09:06:12;;;;;;;0.68;0.40;;;18.20;85.00;;;;;;5063926;28;45226;-79
2021/12/31 09:08:40;;;;;;;1.23;0.40;;;18.20;84.80;;;;;;5061847;28;45179;-78
2021/12/31 09:11:07;;;;;;;0.70;0.50;;;18.20;84.90;;;;;;5065341;28;47209;-78
2021/12/31 09:13:35;;;;;;;0.55;0.40;;;18.20;84.90;;;;;;5066037;28;46277;-78
2021/12/31 09:16:04;;;;;;;0.45;0.35;;;18.20;84.90;;;;;;5069185;28;45517;-79
2021/12/31 09:18:37;;;;;;;0.50;0.32;;;18.20;84.80;;;;;;5060883;28;45470;-79
2021/12/31 09:21:06;;;;;;;0.68;0.40;;;18.20;84.90;;;;;;5064667;28;45397;-79
2021/12/31 09:23:33;;;;;;;0.73;0.47;;;18.10;84.80;;;;;;5069510;28;45267;-79
2021/12/31 09:26:01;;;;;;;0.88;0.40;;;18.20;84.90;;;;;;5058618;28;45493;-78
2021/12/31 09:28:28;;;;;;;0.95;0.47;;;18.20;84.80;;;;;;5056470;28;45263;-78
2021/12/31 09:31:00;;;;;;;0.73;0.40;;;18.20;84.70;;;;;;5066940;28;47110;-78
2021/12/31 09:33:30;;;;;;;0.60;0.45;;;18.20;84.70;;;;;;5069552;28;45215;-78
2021/12/31 09:36:00;;;;;;;0.40;0.30;;;18.20;84.70;;;;;;5067699;28;45282;-78
2021/12/31 09:38:29;;;;;;;0.60;0.50;;;18.20;84.50;;;;;;5049401;28;45494;-78
2021/12/31 09:40:59;;;;;;;1.75;0.40;;;18.20;84.50;;;;;;5068656;28;48145;-78
2021/12/31 09:43:26;;;;;;;0.75;0.30;;;18.20;84.60;;;;;;5059866;28;45506;-78
2021/12/31 09:45:54;;;;;;;0.30;0.30;;;18.20;84.70;;;;;;5076532;28;45284;-78
2021/12/31 09:48:23;;;;;;;0.47;0.30;;;18.20;84.60;;;;;;5061151;28;45589;-78
2021/12/31 09:50:52;;;;;;;0.45;0.43;;;18.30;84.70;;;;;;5068566;28;47742;-78
2021/12/31 09:53:21;;;;;;;0.73;0.30;;;18.30;84.70;;;;;;5065669;28;45396;-77
2021/12/31 09:55:51;;;;;;;0.60;0.40;;;18.20;84.60;;;;;;5063074;28;45188;-78
2021/12/31 09:58:21;;;;;;;0.93;0.50;;;18.20;84.70;;;;;;5058328;28;45493;-78
2021/12/31 10:00:51;;;;;;;0.57;0.50;;;18.20;84.90;;;;;;5055516;28;47430;-78
2021/12/31 10:03:21;;;;;;;0.50;0.40;;;18.20;84.90;;;;;;5053144;28;46914;-78
2021/12/31 10:05:51;;;;;;;0.73;0.40;;;18.10;84.90;;;;;;5058940;28;45509;-78
2021/12/31 10:08:28;;;;;;;0.45;0.40;;;18.20;85.00;;;;;;5055701;28;45441;-79
2021/12/31 10:11:08;;;;;;;0.70;0.40;;;18.10;84.80;;;;;;5072255;28;46692;-78
2021/12/31 10:13:36;;;;;;;0.40;0.40;;;18.20;84.90;;;;;;5058395;28;45333;-79
2021/12/31 10:16:04;;;;;;;0.80;0.50;;;18.10;84.80;;;;;;5067195;28;45128;-78
2021/12/31 10:18:32;;;;;;;0.32;0.32;;;18.10;84.90;;;;;;5057304;28;45410;-80
2021/12/31 10:21:03;;;;;;;0.52;0.30;;;18.10;84.90;;;;;;5055853;28;47313;-79
2021/12/31 10:23:37;;;;;;;0.68;0.30;;;18.10;84.90;;;;;;5059632;28;45310;-78
2021/12/31 10:26:11;;;;;;;0.85;0.50;;;18.20;84.90;;;;;;5062218;28;45538;-78
2021/12/31 10:28:54;;;;;;;0.57;0.40;;;18.20;84.80;;;;;;5048654;28;45362;-78
2021/12/31 10:31:21;;;;;;;0.40;0.30;;;18.20;84.70;;;;;;5047633;28;48738;-78
2021/12/31 10:33:50;;;;;;;0.55;0.50;;;18.20;84.60;;;;;;5059529;28;45180;-78
2021/12/31 10:36:38;;;;;;;0.80;0.40;;;18.20;84.70;;;;;;5064163;28;45310;-78
2021/12/31 10:39:26;;;;;;;0.43;0.40;;;18.20;84.60;;;;;;5071890;28;45191;-78
2021/12/31 10:42:03;;;;;;;0.85;0.30;;;18.20;84.70;;;;;;5051779;28;47395;-78
2021/12/31 10:44:49;;;;;;;0.63;0.55;;;18.30;84.80;;;;;;5074255;28;45974;-78
2021/12/31 10:47:21;;;;;;;1.15;0.50;;;18.20;85.60;;;;;;5048893;28;45243;-78
2021/12/31 10:50:13;;;;;;;0.50;0.40;;;18.20;84.70;;;;;;5048551;28;45494;-78
2021/12/31 10:52:45;;;;;;;0.73;0.50;;;18.20;84.70;;;;;;5062558;28;48253;-78
2021/12/31 10:55:18;;;;;;;0.63;0.30;;;18.20;84.70;;;;;;5076564;28;45329;-78
2021/12/31 10:57:47;;;;;;;0.93;0.50;;;18.20;84.60;;;;;;5048657;28;45248;-78
2021/12/31 11:00:16;;;;;;;0.50;0.30;;;18.20;84.70;;;;;;5049917;28;45219;-78
2021/12/31 11:02:43;;;;;;;0.57;0.40;;;18.20;84.70;;;;;;5056530;28;48068;-78
2021/12/31 11:05:14;;;;;;;1.17;0.57;;;18.20;84.60;;;;;;5055497;28;45283;-78
2021/12/31 11:07:43;;;;;;;0.80;0.50;;;18.20;84.60;;;;;;5048194;28;45223;-78
2021/12/31 11:10:13;;;;;;;0.73;0.50;;;18.20;84.40;;;;;;5068435;28;45242;-78
2021/12/31 11:12:43;;;;;;;1.27;0.40;;;18.20;84.30;;;;;;5088350;28;47661;-78
2021/12/31 11:15:11;;;;;;;0.80;0.50;;;18.20;84.30;;;;;;5048893;28;45791;-78
2021/12/31 11:17:38;;;;;;;0.45;0.45;;;18.30;84.30;;;;;;5062059;28;45192;-78
2021/12/31 11:20:07;;;;;;;0.50;0.35;;;18.30;84.20;;;;;;5068552;28;45597;-78
2021/12/31 11:22:35;;;;;;;0.75;0.40;;;18.30;84.10;;;;;;5067672;28;46760;-78
2021/12/31 11:25:27;;;;;;;0.68;0.35;;;18.30;84.00;;;;;;5054497;28;45653;-78
2021/12/31 11:27:55;;;;;;;0.30;0.30;;;18.30;84.00;;;;;;5066160;28;45187;-78
2021/12/31 11:30:32;;;;;;;0.60;0.40;;;18.30;84.00;;;;;;5069240;28;45132;-78
2021/12/31 11:33:07;;;;;;;0.30;0.30;;;18.30;84.00;;;;;;5068638;28;47561;-78
2021/12/31 11:35:37;;;;;;;0.63;0.38;;;18.30;83.80;;;;;;5049468;28;46239;-78
2021/12/31 11:38:06;;;;;;;0.60;0.30;;;18.30;83.80;;;;;;5050783;28;45447;-78
2021/12/31 11:40:40;;;;;;;0.30;0.30;;;18.30;83.50;;;;;;5049883;28;45406;-79
2021/12/31 11:43:23;;;;;;;0.30;0.30;;;18.30;83.30;;;;;;5052293;28;47290;-80
2021/12/31 11:46:43;;;;;;;0.95;0.43;;;18.20;83.10;;;;;;5052465;28;45237;-80
2021/12/31 11:49:26;;;;;;;0.35;0.35;;;18.20;82.90;;;;;;5061679;28;45282;-79
2021/12/31 11:52:08;;;;;;;0.50;0.50;;;18.20;83.10;;;;;;5051966;28;45243;-80
2021/12/31 11:54:38;;;;;;;1.00;0.40;;;18.20;83.30;;;;;;5058572;28;47445;-80
2021/12/31 11:57:20;;;;;;;0.40;0.40;;;18.20;83.30;;;;;;5055613;28;45800;-79
2021/12/31 11:59:52;;;;;;;0.95;0.50;;;18.10;82.80;;;;;;5056459;28;45643;-80
2021/12/31 12:02:23;;;;;;;0.65;0.45;;;18.20;83.60;;;;;;5056582;28;45319;-79
2021/12/31 12:05:22;;;;;;;0.43;0.30;;;18.20;83.10;;;;;;5056260;28;47263;-80
2021/12/31 12:07:55;;;;;;;0.30;0.30;;;18.20;83.10;;;;;;5064720;28;45306;-80
2021/12/31 12:10:28;;;;;;;3.03;0.50;;;18.20;82.80;;;;;;5056048;28;45223;-80
2021/12/31 12:13:22;;;;;;;0.43;0.40;;;18.10;82.70;;;;;;5059364;28;45249;-80
2021/12/31 12:15:51;;;;;;;1.65;0.52;;;18.20;82.80;;;;;;5051251;28;45464;-80
2021/12/31 12:18:56;;;;;;;0.95;0.40;;;18.20;82.70;;;;;;5064779;28;45212;-79
2021/12/31 12:21:39;;;;;;;0.50;0.40;;;18.20;82.70;;;;;;5068412;28;45624;-80
2021/12/31 12:24:09;;;;;;;1.05;0.30;;;18.20;82.60;;;;;;5078991;28;45400;-82
2021/12/31 12:26:38;;;;;;;0.30;0.30;;;18.20;82.70;;;;;;5056866;28;45219;-82
2021/12/31 12:29:09;;;;;;;0.50;0.40;;;18.20;82.50;;;;;;5056126;28;45303;-80
2021/12/31 12:31:44;;;;;;;0.68;0.50;;;18.30;82.60;;;;;;5056421;28;45188;-80
2021/12/31 12:34:13;;;;;;;0.35;0.35;;;18.30;82.70;;;;;;5056665;28;45276;-80
2021/12/31 12:36:43;;;;;;;0.93;0.45;;;18.30;82.40;;;;;;5065401;28;47024;-81
2021/12/31 12:39:12;;;;;;;0.63;0.50;;;18.30;82.50;;;;;;5065329;28;45291;-81
2021/12/31 12:41:41;;;;;;;0.35;0.35;;;18.30;82.40;;;;;;5054849;28;45270;-80
2021/12/31 12:44:16;;;;;;;0.88;0.35;;;18.20;82.20;;;;;;5054420;28;45512;-80
2021/12/31 12:46:55;;;;;;;0.65;0.55;;;18.20;82.20;;;;;;5062210;28;45232;-80
2021/12/31 12:49:26;;;;;;;0.70;0.50;;;18.30;82.20;;;;;;5051109;28;45172;-80
2021/12/31 12:51:56;;;;;;;1.20;0.50;;;18.20;82.30;;;;;;5057726;28;45342;-80
2021/12/31 12:54:26;;;;;;;0.30;0.30;;;18.20;82.30;;;;;;5070127;27;45210;-80
2021/12/31 12:56:54;;;;;;;0.52;0.50;;;18.20;82.20;;;;;;5061987;28;47823;-80
2021/12/31 12:59:23;;;;;;;0.60;0.38;;;18.30;82.20;;;;;;5057522;28;45258;-80
2021/12/31 13:01:53;;;;;;;0.70;0.40;;;18.30;82.30;;;;;;5050718;28;45292;-80
2021/12/31 13:04:32;;;;;;;0.50;0.50;;;18.30;82.20;;;;;;5065387;28;45437;-80
2021/12/31 13:07:10;;;;;;;0.40;0.40;;;18.30;82.20;;;;;;5058615;28;45876;-80
2021/12/31 13:09:38;;;;;;;0.35;0.30;;;18.30;82.20;;;;;;5053884;28;45796;-80
2021/12/31 13:12:10;;;;;;;0.95;0.40;;;18.40;82.10;;;;;;5061446;28;45362;-80
2021/12/31 13:14:40;;;;;;;0.90;0.52;;;18.40;81.80;;;;;;5069959;28;45290;-80
2021/12/31 13:17:08;;;;;;;0.30;0.30;;;18.50;81.70;;;;;;5053817;28;47260;-79
2021/12/31 13:19:39;;;;;;;0.63;0.40;;;18.40;81.80;;;;;;5058098;28;45210;-80
2021/12/31 13:22:09;;;;;;;0.57;0.40;;;18.40;81.90;;;;;;5063011;28;45235;-79
2021/12/31 13:24:38;;;;;;;0.35;0.30;;;18.30;81.80;;;;;;5062737;28;45369;-79
2021/12/31 13:27:14;;;;;;;0.65;0.50;;;18.40;81.70;;;;;;5062550;28;47152;-78
2021/12/31 13:29:46;;;;;;;1.00;0.68;;;18.40;81.70;;;;;;5074493;28;45258;-81
2021/12/31 13:32:21;;;;;;;0.47;0.38;;;18.40;81.70;;;;;;5087431;28;45238;-80
2021/12/31 13:34:50;;;;;;;0.95;0.50;;;18.40;81.80;;;;;;5066497;28;45485;-80
2021/12/31 13:37:25;;;;;;;0.50;0.50;;;18.40;81.90;;;;;;5059296;28;46717;-79
2021/12/31 13:40:10;;;;;;;0.93;0.50;;;18.30;81.70;;;;;;5064938;28;45296;-78
2021/12/31 13:42:39;;;;;;;0.95;0.50;;;18.30;81.70;;;;;;5062593;28;45279;-78
2021/12/31 13:45:18;;;;;;;0.50;0.50;;;18.40;81.50;;;;;;5053714;28;45478;-78
2021/12/31 13:47:46;;;;;;;0.98;0.50;;;18.40;81.20;;;;;;5067248;28;48593;-81
2021/12/31 13:50:13;;;;;;;0.60;0.55;;;18.40;81.40;;;;;;5054701;28;45187;-79
2021/12/31 13:52:47;;;;;;;0.40;0.40;;;18.40;81.40;;;;;;5056668;28;45331;-80
2021/12/31 13:55:19;;;;;;;0.82;0.47;;;18.40;81.70;;;;;;5070595;28;45466;-81
2021/12/31 13:58:00;;;;;;;0.95;0.65;;;18.40;81.70;;;;;;5064804;28;47113;-82
2021/12/31 14:00:30;;;;;;;1.88;0.73;;;18.30;81.70;;;;;;5070096;28;45211;-81
2021/12/31 14:02:57;;;;;;;0.95;0.60;;;18.30;82.80;;;;;;5050144;28;45254;-78
2021/12/31 14:05:30;;;;;;;0.95;0.55;;;18.30;82.10;;;;;;5055532;28;45286;-82
2021/12/31 14:08:04;;;;;;;0.40;0.40;;;18.50;82.40;;;;;;5072571;28;47648;-81
2021/12/31 14:10:33;;;;;;;1.60;0.60;;;18.30;82.10;;;;;;5071118;27;45323;-80
2021/12/31 14:13:03;;;;;;;0.88;0.50;;;18.40;81.80;;;;;;5048405;28;45270;-79
2021/12/31 14:15:34;;;;;;;2.35;0.60;;;18.30;81.70;;;;;;5051322;28;45224;-79
2021/12/31 14:18:02;;;;;;;0.82;0.60;;;18.30;81.70;;;;;;5058910;28;47837;-79
2021/12/31 14:20:32;;;;;;;0.70;0.50;;;18.40;81.90;;;;;;5048103;28;45297;-79
2021/12/31 14:23:00;;;;;;;0.30;0.30;;;18.30;81.90;;;;;;5050857;28;45332;-79
2021/12/31 14:25:28;;;;;;;0.82;0.60;;;18.30;82.00;;;;;;5063064;28;45187;-79
2021/12/31 14:27:56;;;;;;;0.60;0.50;;;18.30;82.10;;;;;;5075414;27;47305;-79
2021/12/31 14:30:25;;;;;;;0.98;0.60;;;18.30;82.10;;;;;;5053995;28;45575;-79
2021/12/31 14:32:58;;;;;;;1.42;0.70;;;18.30;82.20;;;;;;5051397;28;45407;-79
2021/12/31 14:35:30;;;;;;;1.67;0.60;;;18.30;82.20;;;;;;5067199;28;45387;-80
2021/12/31 14:37:58;;;;;;;1.83;0.68;;;18.20;82.20;;;;;;5060501;28;48107;-80
2021/12/31 14:40:26;;;;;;;0.80;0.63;;;18.30;82.40;;;;;;5070909;28;45264;-79
2021/12/31 14:42:55;;;;;;;1.45;0.60;;;18.30;82.40;;;;;;5059753;28;45262;-79
2021/12/31 14:45:23;;;;;;;0.43;0.35;;;18.30;82.40;;;;;;5053956;28;45239;-79
2021/12/31 14:47:51;;;;;;;0.70;0.60;;;18.30;82.30;;;;;;5055485;28;47138;-78
2021/12/31 14:50:20;;;;;;;1.23;0.70;;;18.30;82.20;;;;;;5065402;28;45630;-79
2021/12/31 14:52:52;;;;;;;0.95;0.50;;;18.30;82.20;;;;;;5048934;28;45117;-79
2021/12/31 14:55:19;;;;;;;1.15;0.52;;;18.30;82.10;;;;;;5054302;28;45299;-79
2021/12/31 14:57:47;;;;;;;1.02;0.57;;;18.30;82.10;;;;;;5076517;28;46727;-79
2021/12/31 15:00:17;;;;;;;1.38;0.40;;;18.30;82.20;;;;;;5071283;28;46608;-79
2021/12/31 15:02:45;;;;;;;0.60;0.55;;;18.30;82.10;;;;;;5050246;28;45317;-78
2021/12/31 15:05:13;;;;;;;0.80;0.45;;;18.30;81.90;;;;;;5053821;28;45443;-80
2021/12/31 15:07:42;;;;;;;1.55;0.60;;;18.30;83.00;;;;;;5063287;28;46934;-78
2021/12/31 15:10:11;;;;;;;0.75;0.65;;;18.30;81.70;;;;;;5049209;28;46649;-82
2021/12/31 15:12:39;;;;;;;1.00;0.80;;;18.30;81.80;;;;;;5056679;28;45188;-81
2021/12/31 15:15:07;;;;;;;2.50;0.95;;;18.30;82.30;;;;;;5060819;28;45243;-79
2021/12/31 15:17:43;;;;;;;0.77;0.70;;;18.30;82.00;;;;;;5058042;28;47636;-79
2021/12/31 15:20:12;;;;;;;1.30;0.93;;;18.30;83.00;;;;;;5052241;28;45329;-79
2021/12/31 15:22:41;;;;;;;1.75;1.30;;;18.30;82.20;;;;;;5067355;28;45248;-79
2021/12/31 15:25:11;;;;;;;1.13;0.80;;;18.30;82.20;;;;;;5068168;28;45352;-80
2021/12/31 15:27:39;;;;;;;2.70;1.13;;;18.30;82.40;;;;;;5077886;28;46646;-80
2021/12/31 15:30:09;;;;;;;2.42;0.80;;;18.30;82.30;;;;;;5057550;28;45294;-79
2021/12/31 15:32:43;;;;;;;1.23;0.90;;;18.30;82.20;;;;;;5078149;28;45245;-78
2021/12/31 15:35:12;;;;;;;1.83;0.82;;;18.20;82.00;;;;;;5073062;28;45573;-81
2021/12/31 15:37:44;;;;;;;1.27;0.80;;;18.20;82.00;;;;;;5065633;28;48216;-81
2021/12/31 15:40:14;;;;;;;8.15;0.85;;;18.30;82.10;;;;;;5073055;28;45303;-80
2021/12/31 15:42:42;;;;;;;1.48;0.80;;;18.20;81.90;;;;;;5062415;28;45245;-79
2021/12/31 15:45:10;;;;;;;1.20;0.82;;;18.20;82.10;;;;;;5062822;28;45230;-79
2021/12/31 15:47:39;;;;;;;2.47;1.00;;;18.30;82.20;;;;;;5060257;28;46530;-80
2021/12/31 15:50:07;;;;;;;1.63;0.93;;;18.20;81.90;;;;;;5077982;28;46136;-80
2021/12/31 15:52:35;;;;;;;1.58;0.90;;;18.20;82.10;;;;;;5060588;28;45382;-79
2021/12/31 15:55:05;;;;;;;1.30;0.90;;;18.20;82.20;;;;;;5070197;28;45222;-79
2021/12/31 15:57:34;;;;;;;1.23;0.80;;;18.30;82.00;;;;;;5058812;28;48302;-79
2021/12/31 16:00:01;;;;;;;1.88;0.82;;;18.30;81.70;;;;;;5074785;28;45554;-79
2021/12/31 16:02:28;;;;;;;1.48;0.93;;;18.30;81.30;;;;;;5069835;28;45343;-78
2021/12/31 16:04:55;;;;;;;2.08;1.10;;;18.30;81.20;;;;;;5055598;28;45542;-78
2021/12/31 16:07:27;;;;;;;1.55;0.80;;;18.30;81.20;;;;;;5056994;28;47543;-79
2021/12/31 16:09:58;;;;;;;1.15;0.95;;;18.30;81.20;;;;;;5066204;28;45753;-80
2021/12/31 16:12:27;;;;;;;1.05;0.88;;;18.30;81.40;;;;;;5063326;28;45356;-79
2021/12/31 16:14:55;;;;;;;1.10;0.70;;;18.30;81.50;;;;;;5062400;28;45303;-82
2021/12/31 16:17:22;;;;;;;1.50;1.10;;;18.30;81.90;;;;;;5078081;28;48701;-80
2021/12/31 16:19:51;;;;;;;1.02;0.80;;;18.30;82.50;;;;;;5067819;28;45352;-80
2021/12/31 16:22:21;;;;;;;1.60;0.98;;;18.20;82.60;;;;;;5072098;28;45613;-81
2021/12/31 16:24:48;;;;;;;1.85;1.00;;;18.20;82.60;;;;;;5076339;28;45309;-81
2021/12/31 16:27:16;;;;;;;1.83;1.10;;;18.30;82.80;;;;;;5067295;28;46587;-81
2021/12/31 16:29:53;;;;;;;1.40;1.00;;;18.30;82.80;;;;;;5065357;28;45137;-82
2021/12/31 16:32:20;;;;;;;0.85;0.68;;;18.30;82.80;;;;;;5068237;28;45105;-81
2021/12/31 16:34:48;;;;;;;2.03;1.10;;;18.30;82.80;;;;;;5078112;27;45287;-81
2021/12/31 16:37:15;;;;;;;2.40;1.13;;;18.30;82.60;;;;;;5056375;28;46925;-80
2021/12/31 16:39:43;;;;;;;1.23;0.93;;;18.30;82.60;;;;;;5065246;28;45266;-80
2021/12/31 16:42:11;;;;;;;1.48;1.10;;;18.30;82.50;;;;;;5069834;28;45358;-84
2021/12/31 16:44:39;;;;;;;2.78;1.10;;;18.30;83.50;;;;;;5064618;28;45532;-81
2021/12/31 16:47:09;;;;;;;1.83;1.00;;;18.60;82.50;;;;;;5065125;28;48186;-80
2021/12/31 16:49:37;;;;;;;1.30;0.85;;;18.40;82.20;;;;;;5058144;28;45434;-80
2021/12/31 16:52:05;;;;;;;0.80;0.80;;;18.40;82.20;;;;;;5051460;28;45378;-79
2021/12/31 16:54:35;;;;;;;2.28;1.10;;;18.40;82.20;;;;;;5060107;28;45322;-79
2021/12/31 16:57:03;;;;;;;1.70;0.90;;;18.40;82.10;;;;;;5060871;28;45291;-79
2021/12/31 16:59:31;;;;;;;2.60;0.90;;;18.40;82.10;;;;;;5064648;28;45602;-80
2021/12/31 17:01:59;;;;;;;1.58;0.70;;;18.40;82.10;;;;;;5062173;28;45248;-80
2021/12/31 17:04:40;;;;;;;2.67;0.90;;;18.40;82.10;;;;;;5073586;28;45437;-80
2021/12/31 17:07:08;;;;;;;2.30;1.00;;;18.40;82.20;;;;;;5067620;28;49113;-80
2021/12/31 17:09:36;;;;;;;1.20;1.00;;;18.40;82.50;;;;;;5047516;28;45584;-80
2021/12/31 17:12:05;;;;;;;1.00;0.90;;;18.40;85.00;;;;;;5053635;28;45343;-83
2021/12/31 17:14:32;;;;;;;1.05;0.80;;;17.60;82.00;;;;;;5062423;28;45333;-81
2021/12/31 17:17:00;;;;;;;2.03;0.82;;;18.50;82.60;;;;;;5061335;28;47190;-84
2021/12/31 17:19:27;;;;;;;1.30;1.00;;;18.50;84.30;;;;;;5059283;28;45188;-81
2021/12/31 17:21:59;;;;;;;1.83;1.00;;;18.60;82.70;;;;;;5060882;28;45317;-79